createdAt,value
2023-03-03T00:01:43.937Z,4.53
2023-03-03T00:04:11.468Z,5.00
2023-03-03T00:06:39.386Z,4.70
2023-03-03T00:09:08.289Z,4.20
2023-03-03T00:11:35.887Z,4.83
2023-03-03T00:14:03.451Z,3.73
2023-03-03T00:16:33.520Z,4.70
2023-03-03T00:19:01.209Z,4.10
2023-03-03T00:21:31.257Z,5.03
2023-03-03T00:24:19.229Z,4.90
2023-03-03T00:26:47.876Z,3.90
2023-03-03T00:29:28.396Z,4.77
2023-03-03T00:31:56.345Z,4.33
2023-03-03T00:34:27.133Z,4.50
2023-03-03T00:36:55.979Z,4.33
2023-03-03T00:39:29.215Z,4.40
2023-03-03T00:41:57.232Z,5.00
2023-03-03T00:44:43.706Z,4.57
2023-03-03T00:47:20.245Z,3.93
2023-03-03T00:49:47.803Z,4.23
2023-03-03T00:52:18.282Z,4.50
2023-03-03T00:54:47.324Z,4.47
2023-03-03T00:57:14.911Z,4.57
2023-03-03T00:59:42.445Z,4.57
2023-03-03T01:02:10.126Z,4.50
2023-03-03T01:04:37.858Z,4.33
2023-03-03T01:07:05.433Z,4.40
2023-03-03T01:09:33.001Z,5.00
2023-03-03T01:12:01.957Z,4.77
2023-03-03T01:14:29.549Z,4.73
2023-03-03T01:16:57.227Z,4.43
2023-03-03T01:19:24.799Z,4.90
2023-03-03T01:21:52.637Z,4.80
2023-03-03T01:24:20.157Z,4.67
2023-03-03T01:26:47.855Z,4.53
2023-03-03T01:29:16.745Z,4.67
2023-03-03T01:31:44.546Z,4.13
2023-03-03T01:34:12.168Z,4.77
2023-03-03T01:36:39.853Z,5.17
2023-03-03T01:39:07.483Z,4.83
2023-03-03T01:41:35.010Z,5.10
2023-03-03T01:44:02.828Z,5.00
2023-03-03T01:46:43.821Z,5.60
2023-03-03T01:49:14.566Z,4.57
2023-03-03T01:51:48.452Z,4.57
2023-03-03T01:54:19.925Z,4.77
2023-03-03T01:56:48.010Z,4.63
2023-03-03T01:59:18.392Z,4.93
2023-03-03T02:01:48.516Z,4.90
2023-03-03T02:04:16.498Z,4.63
2023-03-03T02:06:48.749Z,4.60
2023-03-03T02:09:20.163Z,5.00
2023-03-03T02:11:50.375Z,4.80
2023-03-03T02:14:17.957Z,4.33
2023-03-03T02:16:47.021Z,5.40
2023-03-03T02:19:20.461Z,4.47
2023-03-03T02:21:48.011Z,5.57
2023-03-03T02:24:19.622Z,5.20
2023-03-03T02:26:49.044Z,5.07
2023-03-03T02:29:16.663Z,5.13
2023-03-03T02:31:44.273Z,5.37
2023-03-03T02:34:11.986Z,4.70
2023-03-03T02:36:41.002Z,4.90
2023-03-03T02:39:11.509Z,5.17
2023-03-03T02:41:42.723Z,4.60
2023-03-03T02:44:13.299Z,4.70
2023-03-03T02:46:43.067Z,4.97
2023-03-03T02:49:12.650Z,5.20
2023-03-03T02:51:40.506Z,4.67
2023-03-03T02:54:09.342Z,5.00
2023-03-03T02:56:37.542Z,4.67
2023-03-03T02:59:05.308Z,5.03
2023-03-03T03:01:37.077Z,5.47
2023-03-03T03:04:08.348Z,5.20
2023-03-03T03:06:36.920Z,5.07
2023-03-03T03:09:04.983Z,5.20
2023-03-03T03:11:32.925Z,4.67
2023-03-03T03:14:00.547Z,5.50
2023-03-03T03:16:28.326Z,5.43
2023-03-03T03:18:57.335Z,5.03
2023-03-03T03:21:24.878Z,5.10
2023-03-03T03:23:52.515Z,5.97
2023-03-03T03:26:21.134Z,5.47
2023-03-03T03:28:48.979Z,6.07
2023-03-03T03:31:16.770Z,5.53
2023-03-03T03:33:44.539Z,6.73
2023-03-03T03:36:13.558Z,6.00
2023-03-03T03:38:41.168Z,5.90
2023-03-03T03:41:09.077Z,6.03
2023-03-03T03:43:37.028Z,6.03
2023-03-03T03:46:04.920Z,7.00
2023-03-03T03:48:32.656Z,6.37
2023-03-03T03:51:00.194Z,5.83
2023-03-03T03:53:29.061Z,6.20
2023-03-03T03:55:56.707Z,6.20
2023-03-03T03:58:24.230Z,6.27
2023-03-03T04:00:51.815Z,7.93
2023-03-03T04:03:19.520Z,6.53
2023-03-03T04:05:47.117Z,7.40
2023-03-03T04:08:14.704Z,7.50
2023-03-03T04:10:43.848Z,7.37
2023-03-03T04:13:11.492Z,8.27
2023-03-03T04:15:39.044Z,8.07
2023-03-03T04:18:06.696Z,9.23
2023-03-03T04:20:34.356Z,9.37
2023-03-03T04:23:02.052Z,8.60
2023-03-03T04:25:29.588Z,9.93
2023-03-03T04:27:58.517Z,8.63
2023-03-03T04:30:26.927Z,9.30
2023-03-03T04:32:54.645Z,9.60
2023-03-03T04:35:22.304Z,9.67
2023-03-03T04:37:49.890Z,10.10
2023-03-03T04:40:20.672Z,9.00
2023-03-03T04:42:48.310Z,10.57
2023-03-03T04:45:17.518Z,10.43
2023-03-03T04:47:45.095Z,9.90
2023-03-03T04:50:12.914Z,10.27
2023-03-03T04:52:40.463Z,9.37
2023-03-03T04:55:10.588Z,10.23
2023-03-03T04:57:38.404Z,9.70
2023-03-03T05:00:07.285Z,9.90
2023-03-03T05:02:36.325Z,10.70
2023-03-03T05:05:04.089Z,11.80
2023-03-03T05:07:31.784Z,12.40
2023-03-03T05:09:59.300Z,11.33
2023-03-03T05:12:26.957Z,11.30
2023-03-03T05:14:54.522Z,11.40
2023-03-03T05:17:22.105Z,11.43
2023-03-03T05:19:51.059Z,11.70
2023-03-03T05:22:18.606Z,11.23
2023-03-03T05:24:49.006Z,12.30
2023-03-03T05:27:16.697Z,11.87
2023-03-03T05:29:44.460Z,12.37
2023-03-03T05:32:12.283Z,12.30
2023-03-03T05:34:40.073Z,13.60
2023-03-03T05:37:09.072Z,12.90
2023-03-03T05:39:39.616Z,12.97
2023-03-03T05:42:07.389Z,11.93
2023-03-03T05:44:34.947Z,13.97
2023-03-03T05:47:02.478Z,13.57
2023-03-03T05:49:29.990Z,13.20
2023-03-03T05:51:59.112Z,12.93
2023-03-03T05:54:28.068Z,13.73
2023-03-03T05:56:57.220Z,14.07
2023-03-03T05:59:24.811Z,13.33
2023-03-03T06:01:52.389Z,12.97
2023-03-03T06:04:20.009Z,12.97
2023-03-03T06:06:47.564Z,13.47
2023-03-03T06:09:15.523Z,13.07
2023-03-03T06:11:44.478Z,14.30
2023-03-03T06:14:12.110Z,13.77
2023-03-03T06:16:39.690Z,14.27
2023-03-03T06:19:07.271Z,14.67
2023-03-03T06:21:34.870Z,14.53
2023-03-03T06:24:02.406Z,14.37
2023-03-03T06:26:30.005Z,14.57
2023-03-03T06:28:59.028Z,15.13
2023-03-03T06:31:27.135Z,14.80
2023-03-03T06:33:55.016Z,14.87
2023-03-03T06:36:23.512Z,14.47
2023-03-03T06:38:51.202Z,14.53
2023-03-03T06:41:18.771Z,15.27
2023-03-03T06:43:46.353Z,16.13
2023-03-03T06:46:15.298Z,17.03
2023-03-03T06:48:42.914Z,17.03
2023-03-03T06:51:21.730Z,15.37
2023-03-03T06:53:49.813Z,16.33
2023-03-03T06:56:18.352Z,16.53
2023-03-03T06:58:45.909Z,16.17
2023-03-03T07:01:18.070Z,15.60
2023-03-03T07:03:45.804Z,17.10
2023-03-03T07:06:22.473Z,16.77
2023-03-03T07:08:50.421Z,15.87
2023-03-03T07:11:20.484Z,16.23
2023-03-03T07:13:49.394Z,17.57
2023-03-03T07:16:20.342Z,17.07
2023-03-03T07:18:51.295Z,16.60
2023-03-03T07:21:20.460Z,15.50
2023-03-03T07:23:49.708Z,16.00
2023-03-03T07:26:19.433Z,16.40
2023-03-03T07:28:54.076Z,14.50
2023-03-03T07:31:28.745Z,14.07
2023-03-03T07:33:56.982Z,14.40
2023-03-03T07:36:28.613Z,15.73
2023-03-03T07:38:57.602Z,14.23
2023-03-03T07:41:25.226Z,14.87
2023-03-03T07:43:54.917Z,15.13
2023-03-03T07:46:36.126Z,15.50
2023-03-03T07:49:11.693Z,16.03
2023-03-03T07:51:42.051Z,15.33
2023-03-03T07:54:31.856Z,18.53
2023-03-03T07:57:04.065Z,17.07
2023-03-03T07:59:32.152Z,19.17
2023-03-03T08:02:01.489Z,20.20
2023-03-03T08:04:31.042Z,19.60
2023-03-03T08:06:59.386Z,20.70
2023-03-03T08:09:48.466Z,21.10
2023-03-03T08:12:33.010Z,21.57
2023-03-03T08:15:16.357Z,22.07
2023-03-03T08:17:46.032Z,21.50
2023-03-03T08:20:38.580Z,22.50
2023-03-03T08:23:06.180Z,23.73
2023-03-03T08:25:33.772Z,23.83
2023-03-03T08:28:01.322Z,23.77
2023-03-03T08:30:28.973Z,22.97
2023-03-03T08:32:57.936Z,22.07
2023-03-03T08:35:25.583Z,22.20
2023-03-03T08:37:53.100Z,22.83
2023-03-03T08:40:20.712Z,22.40
2023-03-03T08:42:48.938Z,24.80
2023-03-03T08:45:16.763Z,23.27
2023-03-03T08:47:44.792Z,23.40
2023-03-03T08:50:14.564Z,24.00
2023-03-03T08:52:42.229Z,23.10
2023-03-03T08:55:10.211Z,22.53
2023-03-03T08:57:39.043Z,22.60
2023-03-03T09:00:09.102Z,22.70
2023-03-03T09:02:36.705Z,23.23
2023-03-03T09:05:04.724Z,22.77
2023-03-03T09:07:33.733Z,23.20
2023-03-03T09:10:01.402Z,22.97
2023-03-03T09:12:31.498Z,23.63
2023-03-03T09:15:01.701Z,23.37
2023-03-03T09:17:31.837Z,23.50
2023-03-03T09:20:02.815Z,23.80
2023-03-03T09:22:30.450Z,24.37
2023-03-03T09:25:00.413Z,23.37
2023-03-03T09:27:30.533Z,24.60
2023-03-03T09:29:58.738Z,24.43
2023-03-03T09:32:33.117Z,22.80
2023-03-03T09:35:01.282Z,24.10
2023-03-03T09:37:32.415Z,23.50
2023-03-03T09:40:01.412Z,23.87
2023-03-03T09:42:42.919Z,23.90
2023-03-03T09:45:37.041Z,24.03
2023-03-03T09:48:24.097Z,23.87
2023-03-03T09:51:00.682Z,23.63
2023-03-03T09:53:38.656Z,22.60
2023-03-03T09:56:12.422Z,22.23
2023-03-03T09:58:53.039Z,22.00
2023-03-03T10:01:35.136Z,22.33
2023-03-03T10:04:15.338Z,20.53
2023-03-03T10:06:46.912Z,20.10
2023-03-03T10:09:48.346Z,21.03
2023-03-03T10:12:22.513Z,22.27
2023-03-03T10:15:08.449Z,22.10
2023-03-03T10:17:45.687Z,21.90
2023-03-03T10:20:49.195Z,22.00
2023-03-03T10:23:23.420Z,22.63
2023-03-03T10:25:55.508Z,22.33
2023-03-03T10:28:53.698Z,21.07
2023-03-03T10:31:29.349Z,21.43
2023-03-03T10:34:00.381Z,21.57
2023-03-03T10:36:46.626Z,21.30
2023-03-03T10:39:26.857Z,20.37
2023-03-03T10:42:08.360Z,19.73
2023-03-03T10:44:56.923Z,19.13
2023-03-03T10:47:48.569Z,18.60
2023-03-03T10:50:22.613Z,19.77
2023-03-03T10:52:53.486Z,18.90
2023-03-03T10:55:39.942Z,18.77
2023-03-03T10:58:29.299Z,18.83
2023-03-03T11:01:07.102Z,18.47
2023-03-03T11:03:43.468Z,19.13
2023-03-03T11:06:16.290Z,18.80
2023-03-03T11:08:47.533Z,18.63
2023-03-03T11:11:18.370Z,19.10
2023-03-03T11:13:49.413Z,20.43
2023-03-03T11:16:32.910Z,20.40
2023-03-03T11:19:11.402Z,19.53
2023-03-03T11:21:43.111Z,21.07
2023-03-03T11:24:24.768Z,20.07
2023-03-03T11:27:02.445Z,20.37
2023-03-03T11:29:43.478Z,20.27
2023-03-03T11:32:22.278Z,20.23
2023-03-03T11:34:57.852Z,18.53
2023-03-03T11:37:31.002Z,17.90
2023-03-03T11:40:03.877Z,17.53
2023-03-03T11:42:38.561Z,19.50
2023-03-03T11:45:14.101Z,18.73
2023-03-03T11:47:48.556Z,17.80
2023-03-03T11:50:20.124Z,18.10
2023-03-03T11:52:53.237Z,17.63
2023-03-03T11:55:25.017Z,17.60
2023-03-03T11:57:57.142Z,17.00
2023-03-03T12:00:32.563Z,18.33
2023-03-03T12:03:13.223Z,18.37
2023-03-03T12:05:48.505Z,18.23
2023-03-03T12:08:24.916Z,19.10
2023-03-03T12:10:58.513Z,17.63
2023-03-03T12:13:31.351Z,18.07
2023-03-03T12:16:06.714Z,17.77
2023-03-03T12:19:03.329Z,20.03
2023-03-03T12:21:42.576Z,17.00
2023-03-03T12:24:20.710Z,17.03
2023-03-03T12:26:52.845Z,17.47
2023-03-03T12:29:28.658Z,16.80
2023-03-03T12:32:06.067Z,16.67
2023-03-03T12:34:40.121Z,14.90
2023-03-03T12:37:17.019Z,15.03
2023-03-03T12:39:55.016Z,15.63
2023-03-03T12:42:30.360Z,15.10
2023-03-03T12:45:06.486Z,15.23
2023-03-03T12:47:38.813Z,15.23
2023-03-03T12:50:24.617Z,15.50
2023-03-03T12:52:56.791Z,14.70
2023-03-03T12:55:32.111Z,14.67
2023-03-03T12:58:05.559Z,15.03
2023-03-03T13:00:44.840Z,14.87
2023-03-03T13:03:28.348Z,13.87
2023-03-03T13:06:07.548Z,14.87
2023-03-03T13:08:45.978Z,13.57
2023-03-03T13:11:25.513Z,14.90
2023-03-03T13:13:55.219Z,15.23
2023-03-03T13:16:40.345Z,14.87
2023-03-03T13:19:10.963Z,14.63
2023-03-03T13:21:42.591Z,14.30
2023-03-03T13:24:17.652Z,14.00
2023-03-03T13:26:49.057Z,14.37
2023-03-03T13:29:21.436Z,14.17
2023-03-03T13:31:50.884Z,14.43
2023-03-03T13:34:26.765Z,13.13
2023-03-03T13:36:59.303Z,12.73
2023-03-03T13:39:29.379Z,12.57
2023-03-03T13:41:58.531Z,12.87
2023-03-03T13:44:31.199Z,12.73
2023-03-03T13:47:09.956Z,12.57
2023-03-03T13:49:47.700Z,12.30
2023-03-03T13:52:22.141Z,11.90
2023-03-03T13:54:56.257Z,13.53
2023-03-03T13:57:39.816Z,13.07
2023-03-03T14:00:17.639Z,12.97
2023-03-03T14:02:55.459Z,11.93
2023-03-03T14:05:28.114Z,12.40
2023-03-03T14:08:00.341Z,12.23
2023-03-03T14:10:31.537Z,12.17
2023-03-03T14:13:04.504Z,11.53
2023-03-03T14:15:34.391Z,11.43
2023-03-03T14:18:15.411Z,11.30
2023-03-03T14:20:46.235Z,12.23
2023-03-03T14:23:18.483Z,10.90
2023-03-03T14:25:54.303Z,11.77
2023-03-03T14:28:23.748Z,11.80
2023-03-03T14:30:55.149Z,11.13
2023-03-03T14:33:26.142Z,11.37
2023-03-03T14:36:06.892Z,10.87
2023-03-03T14:38:41.544Z,11.67
2023-03-03T14:41:16.035Z,11.20
2023-03-03T14:43:45.297Z,12.07
2023-03-03T14:46:33.506Z,11.03
2023-03-03T14:49:03.078Z,10.43
2023-03-03T14:51:34.655Z,10.40
2023-03-03T14:54:09.604Z,10.70
2023-03-03T14:56:39.307Z,10.30
2023-03-03T14:59:19.234Z,9.17
2023-03-03T15:01:47.840Z,9.60
2023-03-03T15:04:26.036Z,9.73
2023-03-03T15:06:54.847Z,10.00
2023-03-03T15:09:36.541Z,8.37
2023-03-03T15:12:06.864Z,8.63
2023-03-03T15:14:38.412Z,8.73
2023-03-03T15:17:27.126Z,9.13
2023-03-03T15:20:14.721Z,8.37
2023-03-03T15:22:48.681Z,8.37
2023-03-03T15:25:41.819Z,7.97
2023-03-03T15:28:23.454Z,7.90
2023-03-03T15:30:54.482Z,7.37
2023-03-03T15:33:30.417Z,6.90
2023-03-03T15:36:04.321Z,7.07
2023-03-03T15:38:42.001Z,6.50
2023-03-03T15:41:27.503Z,6.27
2023-03-03T15:44:03.706Z,6.33
2023-03-03T15:46:40.257Z,5.73
2023-03-03T15:49:17.925Z,6.30
2023-03-03T15:52:03.178Z,6.80
2023-03-03T15:54:37.438Z,6.00
2023-03-03T15:57:16.245Z,6.67
2023-03-03T16:00:04.492Z,5.70
2023-03-03T16:02:40.476Z,5.53
2023-03-03T16:05:16.286Z,5.50
2023-03-03T16:07:51.490Z,5.30
2023-03-03T16:10:26.016Z,5.77
2023-03-03T16:13:01.242Z,4.63
2023-03-03T16:15:38.220Z,4.93
2023-03-03T16:18:14.303Z,4.53
2023-03-03T16:20:47.120Z,4.07
2023-03-03T16:23:31.757Z,3.60
2023-03-03T16:26:04.987Z,3.90
2023-03-03T16:28:44.710Z,4.10
2023-03-03T16:31:14.934Z,3.67
2023-03-03T16:33:45.442Z,4.00
2023-03-03T16:36:19.928Z,8.57
2023-03-03T16:38:52.254Z,13.40
2023-03-03T16:41:22.825Z,15.23
2023-03-03T16:44:02.583Z,16.33
2023-03-03T16:46:33.610Z,17.73
2023-03-03T16:49:06.117Z,17.63
2023-03-03T16:51:40.561Z,18.40
2023-03-03T16:54:10.561Z,17.90
2023-03-03T16:56:44.292Z,19.47
2023-03-03T16:59:38.554Z,19.70
2023-03-03T17:02:27.160Z,19.30
2023-03-03T17:04:59.239Z,19.60
2023-03-03T17:07:41.174Z,19.60
2023-03-03T17:10:23.027Z,18.97
2023-03-03T17:13:10.349Z,18.77
2023-03-03T17:15:45.636Z,20.30
2023-03-03T17:18:16.039Z,19.83
2023-03-03T17:20:49.340Z,19.47
2023-03-03T17:23:31.499Z,21.17
2023-03-03T17:26:06.866Z,21.73
2023-03-03T17:28:43.945Z,22.57
2023-03-03T17:31:18.399Z,22.17
2023-03-03T17:34:16.092Z,22.70
2023-03-03T17:36:54.827Z,21.50
2023-03-03T17:39:42.633Z,22.07
2023-03-03T17:42:17.346Z,22.37
2023-03-03T17:44:51.883Z,23.20
2023-03-03T17:47:31.358Z,23.23
2023-03-03T17:50:09.554Z,22.37
2023-03-03T17:52:59.489Z,22.70
2023-03-03T17:55:34.619Z,22.90
2023-03-03T17:58:14.453Z,22.17
2023-03-03T18:00:51.743Z,22.50
2023-03-03T18:03:37.694Z,22.77
2023-03-03T18:06:27.271Z,23.13
2023-03-03T18:09:18.238Z,22.50
2023-03-03T18:11:58.090Z,20.77
2023-03-03T18:14:46.872Z,21.37
2023-03-03T18:17:31.382Z,21.93
2023-03-03T18:20:13.200Z,23.50
2023-03-03T18:22:45.478Z,23.40
2023-03-03T18:25:15.180Z,22.87
2023-03-03T18:27:43.566Z,23.00
2023-03-03T18:30:35.150Z,22.80
2023-03-03T18:33:08.564Z,22.43
2023-03-03T18:35:38.904Z,22.77
2023-03-03T18:38:30.968Z,21.57
2023-03-03T18:40:59.964Z,22.70
2023-03-03T18:43:55.625Z,23.83
2023-03-03T18:46:51.530Z,22.70
2023-03-03T18:49:19.632Z,22.67
2023-03-03T18:51:52.893Z,23.03
2023-03-03T18:54:31.015Z,24.73
2023-03-03T18:57:17.063Z,22.83
2023-03-03T18:59:56.735Z,23.27
2023-03-03T19:02:46.256Z,23.93
2023-03-03T19:05:20.426Z,23.30
2023-03-03T19:07:53.325Z,24.20
2023-03-03T19:10:57.367Z,24.43
2023-03-03T19:13:46.748Z,24.80
2023-03-03T19:16:36.583Z,23.80
2023-03-03T19:19:09.872Z,25.20
2023-03-03T19:21:38.916Z,25.63
2023-03-03T19:24:27.224Z,25.80
2023-03-03T19:27:00.192Z,25.40
2023-03-03T19:29:51.753Z,25.80
2023-03-03T19:32:32.177Z,25.27
2023-03-03T19:35:11.117Z,25.87
2023-03-03T19:37:47.157Z,27.93
2023-03-03T19:40:23.059Z,25.50
2023-03-03T19:42:58.636Z,26.63
2023-03-03T19:45:35.510Z,28.03
2023-03-03T19:48:07.734Z,26.00
2023-03-03T19:50:45.159Z,24.83
2023-03-03T19:53:22.635Z,26.13
2023-03-03T19:56:01.688Z,28.07
2023-03-03T19:58:32.769Z,27.73
2023-03-03T20:01:08.283Z,28.27
2023-03-03T20:03:49.717Z,27.40
2023-03-03T20:06:27.161Z,28.00
2023-03-03T20:09:00.671Z,25.80
2023-03-03T20:11:47.905Z,26.90
2023-03-03T20:14:28.771Z,26.90
2023-03-03T20:17:01.241Z,26.23
2023-03-03T20:19:41.176Z,28.10
2023-03-03T20:22:10.632Z,27.70
2023-03-03T20:24:47.740Z,27.77
2023-03-03T20:27:18.798Z,28.40
2023-03-03T20:30:08.536Z,27.03
2023-03-03T20:32:59.133Z,28.53
2023-03-03T20:35:33.857Z,28.67
2023-03-03T20:38:10.121Z,29.57
2023-03-03T20:40:41.317Z,30.57
2023-03-03T20:43:20.768Z,27.90
2023-03-03T20:45:57.308Z,28.80
2023-03-03T20:48:35.157Z,26.83
2023-03-03T20:51:06.879Z,30.07
2023-03-03T20:53:42.058Z,28.50
2023-03-03T20:56:12.900Z,29.07
2023-03-03T20:58:53.869Z,27.87
2023-03-03T21:01:27.413Z,29.93
2023-03-03T21:03:56.634Z,30.00
2023-03-03T21:06:25.478Z,27.57
2023-03-03T21:08:54.358Z,29.23
2023-03-03T21:11:23.214Z,28.33
2023-03-03T21:13:54.197Z,29.83
2023-03-03T21:16:32.846Z,30.60
2023-03-03T21:19:02.992Z,29.33
2023-03-03T21:21:32.782Z,31.87
2023-03-03T21:24:00.434Z,30.63
2023-03-03T21:26:52.466Z,28.70
2023-03-03T21:29:24.179Z,28.90
2023-03-03T21:31:53.357Z,30.50
2023-03-03T21:34:24.482Z,29.57
2023-03-03T21:36:52.795Z,30.30
2023-03-03T21:39:22.846Z,32.17
2023-03-03T21:41:58.465Z,31.17
2023-03-03T21:44:41.545Z,32.43
2023-03-03T21:47:10.668Z,30.73
2023-03-03T21:49:41.770Z,31.90
2023-03-03T21:52:09.716Z,34.27
2023-03-03T21:54:37.784Z,34.03
2023-03-03T21:57:05.628Z,33.83
2023-03-03T21:59:34.638Z,31.83
2023-03-03T22:02:02.177Z,34.00
2023-03-03T22:04:29.779Z,32.10
2023-03-03T22:06:57.650Z,33.10
2023-03-03T22:09:25.271Z,33.80
2023-03-03T22:11:52.869Z,34.33
2023-03-03T22:14:20.445Z,33.47
2023-03-03T22:16:49.297Z,33.20
2023-03-03T22:19:16.819Z,32.67
2023-03-03T22:21:44.574Z,34.03
2023-03-03T22:24:12.912Z,34.73
2023-03-03T22:26:40.549Z,33.90
2023-03-03T22:29:08.203Z,33.67
2023-03-03T22:31:35.862Z,33.83
2023-03-03T22:34:05.291Z,33.30
2023-03-03T22:36:33.163Z,33.40
2023-03-03T22:39:02.066Z,32.87
2023-03-03T22:41:30.166Z,33.00
2023-03-03T22:43:58.431Z,34.10
2023-03-03T22:46:26.670Z,32.83
2023-03-03T22:48:55.441Z,34.50
2023-03-03T22:51:24.652Z,32.87
2023-03-03T22:53:52.183Z,32.47
2023-03-03T22:56:19.788Z,33.00
2023-03-03T22:58:47.482Z,32.57
2023-03-03T23:01:15.084Z,33.20
2023-03-03T23:03:42.663Z,31.43
2023-03-03T23:06:10.240Z,32.63
2023-03-03T23:08:39.234Z,34.07
2023-03-03T23:11:06.798Z,32.00
2023-03-03T23:13:35.247Z,32.13
2023-03-03T23:16:02.995Z,31.43
2023-03-03T23:18:30.740Z,31.80
2023-03-03T23:20:58.450Z,33.37
2023-03-03T23:23:26.013Z,32.27
2023-03-03T23:25:54.886Z,33.43
2023-03-03T23:28:22.400Z,31.87
2023-03-03T23:30:52.093Z,31.67
2023-03-03T23:33:19.919Z,29.20
2023-03-03T23:35:48.875Z,31.70
2023-03-03T23:38:17.653Z,31.80
2023-03-03T23:40:46.674Z,29.83
2023-03-03T23:43:15.930Z,28.67
2023-03-03T23:45:43.509Z,30.97
2023-03-03T23:48:11.373Z,31.77
2023-03-03T23:50:39.270Z,31.83
2023-03-03T23:53:07.303Z,28.90
2023-03-03T23:55:34.970Z,29.70
2023-03-03T23:58:02.579Z,30.10
